Ville De Bordeaux — FZCE — position and weather

sailwx.info

Track history (hours):
 
Tides and Currents Weather Stations Pressure Air Temp Water Temp Dewpoint Dewpoint Depression Visibility Wind Speed Wind Dir Waves Ship Positions

Ville De Bordeaux

Last reported at 2016-Jul-27 18:34 UTC. Time now 2016-Jul-27 19:15 UTC.
Position N 36°51' E 001°49'.

Length 150 m; beam 24 m.

Type: Ship. MMSI: 228084000.

Date/timePositionNaut miles runAvg speedWind from/ knotsBaromVisibWave heightAir tempDewpointWater temp
2016-Jul-27 18:34N 36°51' E 001°49'1514.7
2016-Jul-27 17:33N 36°49' E 001°30'1515.5
2016-Jul-27 16:33N 36°47' E 001°11'1515.1
2016-Jul-27 15:33N 36°44' E 000°52'1514.8
2016-Jul-27 14:32N 36°42' E 000°34'1414.7
2016-Jul-27 13:33N 36°40' E 000°16'3115.1
2016-Jul-27 11:31N 36°37' W 000°22'2014.7
2016-Jul-27 10:10N 36°34' W 000°46'1114.0
2016-Jul-27 09:24N 36°32' W 000°60'2914.1
2016-Jul-27 07:21N 36°27' W 001°35'17915.2
2016-Jul-26 19:33N 35°59' W 005°14'193 7.2
2016-Jul-25 16:31N 36°31' W 009°11'2712.1
2016-Jul-25 14:15N 36°50' W 009°35'20 9.6
2016-Jul-25 12:12N 37°10' W 009°40'610.0
2016-Jul-25 11:33N 37°16' W 009°42'1010.0
2016-Jul-25 10:33N 37°26' W 009°45'1010.0
2016-Jul-25 09:33N 37°35' W 009°48'1010.3
2016-Jul-25 08:34N 37°45' W 009°51'1010.1
2016-Jul-25 07:33N 37°55' W 009°54'1010.1
2016-Jul-25 06:33N 38°05' W 009°56'1010.1
2016-Jul-25 05:33N 38°15' W 009°59'1010.3
2016-Jul-25 04:33N 38°25' W 010°02'1010.2
2016-Jul-25 03:34N 38°35' W 010°05'1010.4
2016-Jul-25 02:33N 38°45' W 010°07'1110.4
2016-Jul-25 01:33N 38°56' W 010°07'2410.4
2016-Jul-24 23:14N 39°20' W 010°07'53310.9
2016-Jul-22 22:20N 46°42' W 003°20'1215.4
2016-Jul-22 21:33N 46°49' W 003°05'1515.6
2016-Jul-22 20:33N 46°58' W 002°46'1615.9
2016-Jul-22 19:33N 47°05' W 002°26'1413.5
2016-Jul-22 18:33N 47°15' W 002°13'3 2.7
2016-Jul-22 17:33N 47°17' W 002°10'0 0.0
2016-Jul-22 14:26N 47°17' W 002°10'0 0.0
2016-Jul-22 13:26N 47°17' W 002°10'0 0.0
2016-Jul-22 12:11N 47°17' W 002°10'0 0.0
2016-Jul-22 11:32N 47°17' W 002°10'0 0.0
2016-Jul-22 09:26N 47°17' W 002°10'0 0.0
2016-Jul-22 08:32N 47°17' W 002°10'0 0.0
2016-Jul-22 07:32N 47°17' W 002°10'0 0.0
2016-Jul-22 04:32N 47°17' W 002°10'0 0.0
2016-Jul-22 03:26N 47°17' W 002°10'0 0.0
2016-Jul-22 02:32N 47°17' W 002°10'0 0.0
2016-Jul-22 01:32N 47°17' W 002°10'0 0.0
2016-Jul-22 00:32N 47°17' W 002°10'0 0.0
2016-Jul-21 23:32N 47°17' W 002°10'0 0.0
2016-Jul-21 22:32N 47°17' W 002°10'0 0.0
2016-Jul-21 21:32N 47°17' W 002°10'0 0.0
2016-Jul-21 20:29N 47°17' W 002°10'0 0.0
2016-Jul-21 19:32N 47°17' W 002°10'0 0.0
2016-Jul-21 18:32N 47°17' W 002°10'0 0.0
2016-Jul-21 17:32N 47°17' W 002°10'0 0.0
2016-Jul-21 16:26N 47°17' W 002°10'0 0.0
2016-Jul-21 15:32N 47°17' W 002°10'0 0.0
2016-Jul-21 14:23N 47°17' W 002°10'0 0.0
2016-Jul-21 13:23N 47°17' W 002°10'0 0.0
2016-Jul-21 09:20N 47°17' W 002°10'0 0.0
2016-Jul-21 08:32N 47°17' W 002°10'0 0.0
2016-Jul-21 07:32N 47°17' W 002°10'0 0.0
2016-Jul-21 06:32N 47°17' W 002°10'0 0.0
2016-Jul-21 05:32N 47°17' W 002°10'0 0.0
2016-Jul-21 04:32N 47°17' W 002°10'0 0.0
2016-Jul-21 03:33N 47°17' W 002°10'1211.9
2016-Jul-21 02:33N 47°08' W 002°21'1514.6
2016-Jul-21 01:32N 46°59' W 002°39'1515.2
2016-Jul-21 00:33N 46°51' W 002°57'58712.8
2016-Jul-19 02:34N 38°28' W 009°47'3014.7
2016-Jul-19 00:33N 37°59' W 009°39'23013.2
2016-Jul-18 07:04N 35°58' W 005°34'4 0.3
2016-Jul-17 19:34N 35°58' W 005°30'  
Track history (hours):
 
Tides and Currents Weather Stations Pressure Air Temp Water Temp Dewpoint Dewpoint Depression Visibility Wind Speed Wind Dir Waves Ship Positions

Ville De Bordeaux

Last reported at 2016-Jul-27 18:34 UTC. Time now 2016-Jul-27 19:15 UTC.
Position N 36°51' E 001°49'.

Length 150 m; beam 24 m.

Type: Ship. MMSI: 228084000.

Date/timePositionNaut miles runAvg speedWind from/ knotsBaromVisibWave heightAir tempDewpointWater temp
2016-Jul-27 18:34N 36°51' E 001°49'1514.7
2016-Jul-27 17:33N 36°49' E 001°30'1515.5
2016-Jul-27 16:33N 36°47' E 001°11'1515.1
2016-Jul-27 15:33N 36°44' E 000°52'1514.8
2016-Jul-27 14:32N 36°42' E 000°34'1414.7
2016-Jul-27 13:33N 36°40' E 000°16'3115.1
2016-Jul-27 11:31N 36°37' W 000°22'2014.7
2016-Jul-27 10:10N 36°34' W 000°46'1114.0
2016-Jul-27 09:24N 36°32' W 000°60'2914.1
2016-Jul-27 07:21N 36°27' W 001°35'17915.2
2016-Jul-26 19:33N 35°59' W 005°14'193 7.2
2016-Jul-25 16:31N 36°31' W 009°11'2712.1
2016-Jul-25 14:15N 36°50' W 009°35'20 9.6
2016-Jul-25 12:12N 37°10' W 009°40'610.0
2016-Jul-25 11:33N 37°16' W 009°42'1010.0
2016-Jul-25 10:33N 37°26' W 009°45'1010.0
2016-Jul-25 09:33N 37°35' W 009°48'1010.3
2016-Jul-25 08:34N 37°45' W 009°51'1010.1
2016-Jul-25 07:33N 37°55' W 009°54'1010.1
2016-Jul-25 06:33N 38°05' W 009°56'1010.1
2016-Jul-25 05:33N 38°15' W 009°59'1010.3
2016-Jul-25 04:33N 38°25' W 010°02'1010.2
2016-Jul-25 03:34N 38°35' W 010°05'1010.4
2016-Jul-25 02:33N 38°45' W 010°07'1110.4
2016-Jul-25 01:33N 38°56' W 010°07'2410.4
2016-Jul-24 23:14N 39°20' W 010°07'53310.9
2016-Jul-22 22:20N 46°42' W 003°20'1215.4
2016-Jul-22 21:33N 46°49' W 003°05'1515.6
2016-Jul-22 20:33N 46°58' W 002°46'1615.9
2016-Jul-22 19:33N 47°05' W 002°26'1413.5
2016-Jul-22 18:33N 47°15' W 002°13'3 2.7
2016-Jul-22 17:33N 47°17' W 002°10'0 0.0
2016-Jul-22 14:26N 47°17' W 002°10'0 0.0
2016-Jul-22 13:26N 47°17' W 002°10'0 0.0
2016-Jul-22 12:11N 47°17' W 002°10'0 0.0
2016-Jul-22 11:32N 47°17' W 002°10'0 0.0
2016-Jul-22 09:26N 47°17' W 002°10'0 0.0
2016-Jul-22 08:32N 47°17' W 002°10'0 0.0
2016-Jul-22 07:32N 47°17' W 002°10'0 0.0
2016-Jul-22 04:32N 47°17' W 002°10'0 0.0
2016-Jul-22 03:26N 47°17' W 002°10'0 0.0
2016-Jul-22 02:32N 47°17' W 002°10'0 0.0
2016-Jul-22 01:32N 47°17' W 002°10'0 0.0
2016-Jul-22 00:32N 47°17' W 002°10'0 0.0
2016-Jul-21 23:32N 47°17' W 002°10'0 0.0
2016-Jul-21 22:32N 47°17' W 002°10'0 0.0
2016-Jul-21 21:32N 47°17' W 002°10'0 0.0
2016-Jul-21 20:29N 47°17' W 002°10'0 0.0
2016-Jul-21 19:32N 47°17' W 002°10'0 0.0
2016-Jul-21 18:32N 47°17' W 002°10'0 0.0
2016-Jul-21 17:32N 47°17' W 002°10'0 0.0
2016-Jul-21 16:26N 47°17' W 002°10'0 0.0
2016-Jul-21 15:32N 47°17' W 002°10'0 0.0
2016-Jul-21 14:23N 47°17' W 002°10'0 0.0
2016-Jul-21 13:23N 47°17' W 002°10'0 0.0
2016-Jul-21 09:20N 47°17' W 002°10'0 0.0
2016-Jul-21 08:32N 47°17' W 002°10'0 0.0
2016-Jul-21 07:32N 47°17' W 002°10'0 0.0
2016-Jul-21 06:32N 47°17' W 002°10'0 0.0
2016-Jul-21 05:32N 47°17' W 002°10'0 0.0
2016-Jul-21 04:32N 47°17' W 002°10'0 0.0
2016-Jul-21 03:33N 47°17' W 002°10'1211.9
2016-Jul-21 02:33N 47°08' W 002°21'1514.6
2016-Jul-21 01:32N 46°59' W 002°39'1515.2
2016-Jul-21 00:33N 46°51' W 002°57'58712.8
2016-Jul-19 02:34N 38°28' W 009°47'3014.7
2016-Jul-19 00:33N 37°59' W 009°39'23013.2
2016-Jul-18 07:04N 35°58' W 005°34'4 0.3
2016-Jul-17 19:34N 35°58' W 005°30'  

Dump ship's entire track history